»·PEaware :: N8665R KSNA-KIZA

N8665R :: KSNA-KIZA

FLIGHT INFORMATION

Flight Status: Arrived
Operator: Privately registered:
United States
More flights under this callsign
Pilot: John H. (10732)
Aircraft: PIPER PA-24 COMMANCHE
(PA24)
More flights by this aircraft type
Origin: KSNA John Wayne-Orange Co
United States
Destination: KIZA Santa Ynez
United States
More flights between these airports :: More routes between these airports
Route: +SXC V208 VTU RZS
File this flight plan on PilotEdge
Remarks:
Altitude:
(Current/Filed)
6,000ft
Speed:
(Current/Filed)
145kts
Departed: 25-Jun-19 11:11 AM
Arrived: 25-Jun-19 12:17 PM
Distance/Time
Traveled:
123nm/1:06
Distance/Time
To Go:
Arrived

Flight Plot

Page will automatically refresh every two minutes.

Flight plan parsing failed; only flown route is shown


Map Options




Map Legend


Flown Route
Filed Route
Departure Airport
Arrival Airport
Navaid (VOR, NDB)
Fix

Horizontal Profiles

Position Reports

Time Latitude Longitude Heading Altitude Ground
Speed
25-Jun-19 11:01 33.675117 -117.871695 231 59ft 0kts
25-Jun-19 11:02 33.675116 -117.871697 231 59ft 0kts
25-Jun-19 11:03 33.675115 -117.871698 231 59ft 0kts
25-Jun-19 11:04 33.675114 -117.871699 231 59ft 0kts
25-Jun-19 11:05 33.675114 -117.871701 231 59ft 0kts
25-Jun-19 11:06 33.675113 -117.871702 231 59ft 0kts
25-Jun-19 11:07 33.674731 -117.871051 53 59ft 10kts
25-Jun-19 11:08 33.680533 -117.867411 26 59ft 21kts
25-Jun-19 11:09 33.680747 -117.866219 113 59ft 14kts
25-Jun-19 11:10 33.659602 -117.873449 184 1002ft 112kts
25-Jun-19 11:11 33.631312 -117.878823 190 2429ft 104kts
25-Jun-19 11:12 33.603712 -117.885637 183 3665ft 101kts
25-Jun-19 11:13 33.575036 -117.888963 181 4726ft 107kts
25-Jun-19 11:14 33.541949 -117.896921 186 5058ft 141kts
25-Jun-19 11:15 33.504622 -117.908866 215 5452ft 129kts
25-Jun-19 11:16 33.494230 -117.951197 263 5784ft 149kts
25-Jun-19 11:17 33.483661 -117.997926 243 6001ft 149kts
25-Jun-19 11:18 33.470120 -118.046147 248 6006ft 155kts
25-Jun-19 11:19 33.457464 -118.096946 251 6005ft 160kts
25-Jun-19 11:20 33.444503 -118.147862 250 6013ft 160kts
25-Jun-19 11:21 33.431516 -118.198948 248 6014ft 160kts
25-Jun-19 11:22 33.418362 -118.249929 249 6013ft 160kts
25-Jun-19 11:23 33.405781 -118.300967 249 6013ft 159kts
25-Jun-19 11:24 33.392422 -118.351575 249 6016ft 158kts
25-Jun-19 11:25 33.380028 -118.402399 251 6018ft 159kts
25-Jun-19 11:26 33.373511 -118.454443 273 6018ft 162kts
25-Jun-19 11:27 33.392017 -118.503835 308 6019ft 167kts
25-Jun-19 11:28 33.430871 -118.534760 339 6015ft 171kts
25-Jun-19 11:29 33.475702 -118.553227 331 6014ft 170kts
25-Jun-19 11:30 33.504273 -118.595757 303 6078ft 167kts
25-Jun-19 11:31 33.531573 -118.640804 302 6076ft 167kts
25-Jun-19 11:32 33.559815 -118.685120 308 6076ft 167kts
25-Jun-19 11:33 33.590549 -118.727328 307 6074ft 167kts
25-Jun-19 11:34 33.620422 -118.770256 306 6074ft 167kts
25-Jun-19 11:35 33.650414 -118.812933 307 6074ft 167kts
25-Jun-19 11:36 33.679935 -118.855815 307 6072ft 166kts
25-Jun-19 11:37 33.709998 -118.898226 307 6072ft 166kts
25-Jun-19 11:38 33.738919 -118.941175 307 6072ft 165kts
25-Jun-19 11:39 33.768858 -118.983024 309 6071ft 164kts
25-Jun-19 11:40 33.803330 -119.015943 352 6072ft 166kts
25-Jun-19 11:41 33.849523 -119.021858 353 6066ft 167kts
25-Jun-19 11:42 33.895646 -119.026761 354 6068ft 167kts
25-Jun-19 11:43 33.941898 -119.031018 355 6073ft 166kts
25-Jun-19 11:44 33.988022 -119.036304 353 6074ft 166kts
25-Jun-19 11:45 34.033843 -119.041053 355 6076ft 166kts
25-Jun-19 11:46 34.079989 -119.046040 353 6075ft 166kts
25-Jun-19 11:47 34.121118 -119.063544 307 6082ft 162kts
25-Jun-19 11:48 34.149250 -119.106311 301 6072ft 163kts
25-Jun-19 11:49 34.172509 -119.153143 297 6074ft 162kts
25-Jun-19 11:50 34.196814 -119.199294 305 6076ft 163kts
25-Jun-19 11:51 34.223012 -119.244042 301 6077ft 162kts
25-Jun-19 11:52 34.246798 -119.290477 302 6077ft 163kts
25-Jun-19 11:53 34.272976 -119.335235 303 6069ft 162kts
25-Jun-19 11:54 34.296965 -119.381386 300 6063ft 162kts
25-Jun-19 11:55 34.322310 -119.426588 303 6063ft 162kts
25-Jun-19 11:56 34.347180 -119.472241 299 6063ft 162kts
25-Jun-19 11:57 34.371706 -119.517923 303 6064ft 162kts
25-Jun-19 11:58 34.397012 -119.563153 300 6060ft 162kts
25-Jun-19 11:59 34.421408 -119.608937 303 6059ft 162kts
25-Jun-19 12:00 34.446476 -119.654374 301 6059ft 162kts
25-Jun-19 12:01 34.470987 -119.700214 303 6058ft 162kts
25-Jun-19 12:02 34.496410 -119.745812 302 5900ft 163kts
25-Jun-19 12:03 34.521459 -119.793061 305 5430ft 157kts
25-Jun-19 12:04 34.546787 -119.837153 300 4767ft 173kts
25-Jun-19 12:05 34.571317 -119.882440 299 3840ft 150kts
25-Jun-19 12:06 34.586436 -119.930585 285 3571ft 165kts
25-Jun-19 12:07 34.594923 -119.981381 279 2220ft 137kts
25-Jun-19 12:08 34.599952 -120.022697 276 1836ft 105kts
25-Jun-19 12:09 34.604718 -120.057837 279 899ft 94kts
25-Jun-19 12:10 34.597464 -120.080994 128 1046ft 125kts
25-Jun-19 12:11 34.603422 -120.047050 309 1237ft 115kts
25-Jun-19 12:12 34.607021 -120.079411 275 942ft 102kts
25-Jun-19 12:13 34.592789 -120.063265 89 1832ft 143kts
25-Jun-19 12:14 34.603285 -120.040106 266 1311ft 114kts
25-Jun-19 12:15 34.606420 -120.072282 277 683ft 65kts
25-Jun-19 12:16 34.607629 -120.075810 55 674ft 15kts
25-Jun-19 12:18 34.607525 -120.074863 188 674ft 0kts
25-Jun-19 12:19 34.607525 -120.074863 188 674ft 0kts
25-Jun-19 12:20 34.607525 -120.074863 188 674ft 0kts
25-Jun-19 12:21 34.607525 -120.074863 188 674ft 0kts
25-Jun-19 12:22 34.607525 -120.074863 188 674ft 0kts
25-Jun-19 12:23 34.607525 -120.074863 188 674ft 0kts

Navigation Log

Ident Type
Flight plan parsing failed, navigation log unavailable